21:58
Airports
History
Links
Donate
Help keep this website running!
PayPal
Bitcoin
This page is community maintained. The information is intended for PC simulator navigation or reference.
Always use approved charts for navigation.
EDVY
Porta-WestfalicaEdited 07-Mar-2012
Porta-Westfalica (EDVY)
Porta Westfalica, Nordrhein-Westfalen, Germany (32457)
(U)
Lat/Lng:52° 13' 29.99" N / 8° 51' 48" E
52.224998 / 8.863333
Elevation:160'ft / 49mMSL
ID / ICAO:EDVY
Runways:1
Longest:05-23
Asphalt 483m / 1,584ft
(Edited 2012-03-07) [ Sign in to Edit ]
Nearby Weather21:20 GMT 2017-10-16
Nearby weather at ETHB, Bueckeburg located 10.0 nautical miles from EDVY
Altimeter: 30.12
Visibility: 6.2 statute miles
Wind: 16 knots (from 180°)
Temp: 19°c / 66°f
Humidity: 63.8%

METAR: ETHB 162120Z 18016KT 9999 19/12 Q1020 BLU+

(Powered by phpweather)
Nearby VORs <50NM
Nearby NDBs
Runway 05 / 23
Dimensions:482.8 x 21.3m 1584' x 70'ft
Surface:Asphalt
Runway 05 [A]Runway 23 [B]
Heading:054°TH 234°TH
Lat:
Lng:
52° 13' 25.41"N
8° 51' 37.7"E
52° 13' 34.58"N
8° 51' 58.3"E
User Notes and Comments
52° 13' 29.99" N / 8° 51' 48" E
Distance To
Airport ID:
Nearby Airports
(U) Rinteln 9.4 NM
EDVR ESE 118°
(C) Bueckeburg 10.0 NM
ETHB ( WX ) ENE 68°
(U) Melle Groengau 20.6 NM
EDXG W 265°
(C) Oerlinghausen 21.7 NM
EDLO SSW 201°
(U) Bielefeld Windelsbleiche 22.5 NM
EDLI SW 216°
(C) Bohmte-Bad Essen 24.1 NM
EDXD WNW 291°
(U) Bad Pyrmont 25.4 NM
EDVW SE 133°
VFR Chart
Flight Planning at SkyVector.com